createdAt,value
2023-03-16T00:02:04.125Z,3.00
2023-03-16T00:04:31.209Z,3.00
2023-03-16T00:06:58.697Z,2.90
2023-03-16T00:09:30.863Z,3.00
2023-03-16T00:11:58.815Z,2.90
2023-03-16T00:14:26.417Z,2.90
2023-03-16T00:16:53.316Z,2.80
2023-03-16T00:19:22.832Z,2.90
2023-03-16T00:21:51.242Z,2.90
2023-03-16T00:24:19.356Z,2.80
2023-03-16T00:26:47.268Z,2.90
2023-03-16T00:29:14.627Z,2.80
2023-03-16T00:31:45.078Z,2.70
2023-03-16T00:34:12.751Z,2.80
2023-03-16T00:36:39.458Z,2.80
2023-03-16T00:39:07.021Z,2.80
2023-03-16T00:41:37.879Z,2.70
2023-03-16T00:44:06.035Z,2.80
2023-03-16T00:46:33.232Z,2.70
2023-03-16T00:49:00.051Z,2.70
2023-03-16T00:51:26.721Z,2.70
2023-03-16T00:53:53.326Z,2.60
2023-03-16T00:56:20.002Z,2.60
2023-03-16T00:58:46.619Z,2.60
2023-03-16T01:01:18.744Z,2.50
2023-03-16T01:03:46.260Z,2.60
2023-03-16T01:06:16.905Z,2.50
2023-03-16T01:08:44.368Z,2.50
2023-03-16T01:11:16.405Z,2.60
2023-03-16T01:13:43.475Z,2.50
2023-03-16T01:16:10.759Z,2.40
2023-03-16T01:18:37.577Z,2.40
2023-03-16T01:21:08.932Z,2.40
2023-03-16T01:23:37.319Z,2.40
2023-03-16T01:26:04.010Z,2.40
2023-03-16T01:28:32.735Z,2.40
2023-03-16T01:31:03.821Z,2.40
2023-03-16T01:33:31.051Z,2.40
2023-03-16T01:36:05.127Z,2.40
2023-03-16T01:38:31.859Z,2.40
2023-03-16T01:40:58.561Z,2.40
2023-03-16T01:43:27.132Z,2.40
2023-03-16T01:46:06.136Z,2.50
2023-03-16T01:49:02.358Z,2.50
2023-03-16T01:51:33.902Z,2.50
2023-03-16T01:54:43.808Z,2.50
2023-03-16T01:57:23.373Z,2.50
2023-03-16T01:59:55.296Z,2.40
2023-03-16T02:02:25.865Z,2.40
2023-03-16T02:05:03.980Z,2.40
2023-03-16T02:07:35.596Z,2.40
2023-03-16T02:10:04.696Z,2.30
2023-03-16T02:12:31.646Z,2.30
2023-03-16T02:14:58.258Z,2.30
2023-03-16T02:17:28.253Z,2.30
2023-03-16T02:20:10.830Z,2.20
2023-03-16T02:22:48.621Z,2.20
2023-03-16T02:25:18.304Z,2.20
2023-03-16T02:28:08.230Z,2.20
2023-03-16T02:30:35.468Z,2.20
2023-03-16T02:33:04.959Z,2.10
2023-03-16T02:35:32.312Z,2.20
2023-03-16T02:37:59.077Z,2.20
2023-03-16T02:40:31.778Z,2.20
2023-03-16T02:43:02.783Z,2.10
2023-03-16T02:45:52.361Z,2.10
2023-03-16T02:48:33.109Z,2.10
2023-03-16T02:50:59.700Z,2.10
2023-03-16T02:53:26.292Z,2.10
2023-03-16T02:55:52.885Z,2.10
2023-03-16T02:58:19.527Z,2.10
2023-03-16T03:00:46.167Z,2.10
2023-03-16T03:03:14.051Z,2.10
2023-03-16T03:05:40.778Z,2.10
2023-03-16T03:08:07.555Z,2.10
2023-03-16T03:10:34.376Z,2.10
2023-03-16T03:13:00.998Z,2.10
2023-03-16T03:15:27.616Z,2.10
2023-03-16T03:17:54.246Z,2.00
2023-03-16T03:20:21.561Z,2.00
2023-03-16T03:22:49.694Z,2.00
2023-03-16T03:25:18.403Z,2.10
2023-03-16T03:27:46.360Z,2.10
2023-03-16T03:30:20.005Z,2.00
2023-03-16T03:32:46.890Z,1.90
2023-03-16T03:35:15.898Z,1.90
2023-03-16T03:37:44.270Z,1.90
2023-03-16T03:40:13.756Z,1.90
2023-03-16T03:42:40.964Z,1.90
2023-03-16T03:45:08.874Z,1.90
2023-03-16T03:47:35.537Z,1.90
2023-03-16T03:50:02.309Z,1.90
2023-03-16T03:52:28.990Z,1.90
2023-03-16T03:54:55.649Z,1.90
2023-03-16T03:57:22.285Z,1.90
2023-03-16T03:59:49.046Z,1.80
2023-03-16T04:02:16.168Z,1.80
2023-03-16T04:04:44.785Z,1.70
2023-03-16T04:07:11.694Z,1.70
2023-03-16T04:09:38.347Z,1.70
2023-03-16T04:12:06.380Z,1.70
2023-03-16T04:14:33.436Z,1.60
2023-03-16T04:17:00.083Z,1.60
2023-03-16T04:19:26.729Z,1.70
2023-03-16T04:21:53.441Z,1.70
2023-03-16T04:24:20.298Z,1.70
2023-03-16T04:26:47.074Z,1.70
2023-03-16T04:29:18.005Z,1.60
2023-03-16T04:31:48.193Z,1.60
2023-03-16T04:34:15.014Z,1.60
2023-03-16T04:36:42.085Z,1.50
2023-03-16T04:39:09.823Z,1.60
2023-03-16T04:41:36.800Z,1.50
2023-03-16T04:44:04.632Z,1.50
2023-03-16T04:46:31.653Z,1.50
2023-03-16T04:48:58.684Z,1.50
2023-03-16T04:51:26.394Z,1.50
2023-03-16T04:53:53.539Z,1.50
2023-03-16T04:56:20.731Z,1.50
2023-03-16T04:58:48.946Z,1.60
2023-03-16T05:01:17.085Z,1.60
2023-03-16T05:03:43.765Z,1.60
2023-03-16T05:06:12.091Z,1.60
2023-03-16T05:08:38.806Z,1.60
2023-03-16T05:11:05.643Z,1.60
2023-03-16T05:13:32.599Z,1.60
2023-03-16T05:15:59.420Z,1.60
2023-03-16T05:18:26.951Z,1.60
2023-03-16T05:20:58.836Z,1.60
2023-03-16T05:23:25.474Z,1.60
2023-03-16T05:25:52.086Z,1.50
2023-03-16T05:28:18.693Z,1.60
2023-03-16T05:30:45.463Z,1.50
2023-03-16T05:33:12.903Z,1.40
2023-03-16T05:35:39.845Z,1.50
2023-03-16T05:38:06.684Z,1.50
2023-03-16T05:40:33.403Z,1.50
2023-03-16T05:43:00.602Z,1.50
2023-03-16T05:45:27.880Z,1.40
2023-03-16T05:47:54.604Z,1.50
2023-03-16T05:50:21.843Z,1.50
2023-03-16T05:52:48.548Z,1.50
2023-03-16T05:55:17.229Z,1.50
2023-03-16T05:57:44.460Z,1.50
2023-03-16T06:00:16.866Z,1.50
2023-03-16T06:02:49.003Z,1.50
2023-03-16T06:05:17.457Z,1.50
2023-03-16T06:07:44.944Z,1.40
2023-03-16T06:10:12.936Z,1.50
2023-03-16T06:12:41.123Z,1.50
2023-03-16T06:15:10.349Z,1.50
2023-03-16T06:17:38.659Z,1.50
2023-03-16T06:20:10.918Z,1.50
2023-03-16T06:22:38.755Z,1.50
2023-03-16T06:25:06.003Z,1.50
2023-03-16T06:27:32.724Z,1.50
2023-03-16T06:29:59.384Z,1.50
2023-03-16T06:32:26.085Z,1.60
2023-03-16T06:34:53.143Z,1.60
2023-03-16T06:37:19.843Z,1.60
2023-03-16T06:39:46.447Z,1.70
2023-03-16T06:42:13.182Z,1.70
2023-03-16T06:44:39.884Z,1.70
2023-03-16T06:47:06.747Z,1.70
2023-03-16T06:49:33.414Z,1.70
2023-03-16T06:52:00.770Z,1.80
2023-03-16T06:54:27.456Z,1.90
2023-03-16T06:56:54.094Z,1.90
2023-03-16T06:59:21.520Z,2.00
2023-03-16T07:01:48.215Z,2.00
2023-03-16T07:04:14.886Z,2.00
2023-03-16T07:06:41.637Z,2.10
2023-03-16T07:09:08.860Z,2.10
2023-03-16T07:11:35.563Z,2.10
2023-03-16T07:14:02.185Z,2.20
2023-03-16T07:16:28.848Z,2.30
2023-03-16T07:18:55.980Z,2.40
2023-03-16T07:21:22.653Z,2.40
2023-03-16T07:23:50.085Z,2.40
2023-03-16T07:26:17.427Z,2.50
2023-03-16T07:28:44.917Z,2.50
2023-03-16T07:31:12.919Z,2.50
2023-03-16T07:33:40.028Z,2.50
2023-03-16T07:36:09.092Z,2.60
2023-03-16T07:38:36.118Z,2.60
2023-03-16T07:41:02.816Z,2.70
2023-03-16T07:43:29.527Z,2.70
2023-03-16T07:45:56.371Z,2.70
2023-03-16T07:48:23.079Z,2.90
2023-03-16T07:50:50.418Z,3.00
2023-03-16T07:53:17.139Z,3.10
2023-03-16T07:55:44.559Z,3.20
2023-03-16T07:58:11.763Z,3.40
2023-03-16T08:00:39.253Z,3.50
2023-03-16T08:03:06.288Z,3.60
2023-03-16T08:05:33.207Z,3.70
2023-03-16T08:08:01.597Z,3.70
2023-03-16T08:10:29.189Z,3.80
2023-03-16T08:12:56.060Z,3.80
2023-03-16T08:15:25.022Z,3.80
2023-03-16T08:17:52.461Z,3.90
2023-03-16T08:20:19.215Z,4.00
2023-03-16T08:22:46.544Z,4.00
2023-03-16T08:25:14.714Z,4.20
2023-03-16T08:27:42.647Z,4.30
2023-03-16T08:30:11.538Z,4.30
2023-03-16T08:32:42.486Z,4.30
2023-03-16T08:35:13.740Z,4.40
2023-03-16T08:37:41.487Z,4.40
2023-03-16T08:40:16.612Z,4.40
2023-03-16T08:42:44.803Z,4.50
2023-03-16T08:45:14.214Z,4.50
2023-03-16T08:47:41.585Z,4.60
2023-03-16T08:50:12.948Z,4.60
2023-03-16T08:52:40.689Z,4.70
2023-03-16T08:55:09.598Z,4.80
2023-03-16T08:57:37.397Z,4.80
2023-03-16T09:00:12.625Z,4.90
2023-03-16T09:02:40.574Z,4.90
2023-03-16T09:05:12.416Z,5.00
2023-03-16T09:07:39.582Z,5.00
2023-03-16T09:10:13.156Z,5.10
2023-03-16T09:12:40.769Z,5.20
2023-03-16T09:15:08.866Z,5.20
2023-03-16T09:17:36.253Z,5.30
2023-03-16T09:20:19.629Z,5.40
2023-03-16T09:22:48.776Z,5.50
2023-03-16T09:25:15.954Z,5.50
2023-03-16T09:27:42.657Z,5.60
2023-03-16T09:30:10.364Z,5.70
2023-03-16T09:32:37.381Z,5.80
2023-03-16T09:35:06.188Z,5.90
2023-03-16T09:37:44.598Z,6.00
2023-03-16T09:40:24.898Z,6.00
2023-03-16T09:43:32.273Z,6.10
2023-03-16T09:46:11.306Z,6.20
2023-03-16T09:48:39.929Z,6.20
2023-03-16T09:51:16.155Z,6.30
2023-03-16T09:53:42.758Z,6.40
2023-03-16T09:56:19.359Z,6.40
2023-03-16T09:58:46.316Z,6.50
2023-03-16T10:01:43.075Z,6.50
2023-03-16T10:04:29.928Z,6.60
2023-03-16T10:07:22.139Z,6.70
2023-03-16T10:09:48.734Z,6.70
2023-03-16T10:12:15.953Z,6.80
2023-03-16T10:14:50.103Z,6.90
2023-03-16T10:17:30.432Z,7.00
2023-03-16T10:20:01.803Z,7.00
2023-03-16T10:22:34.833Z,7.00
2023-03-16T10:25:20.351Z,7.10
2023-03-16T10:27:48.175Z,7.10
2023-03-16T10:30:21.722Z,7.20
2023-03-16T10:32:49.459Z,7.30
2023-03-16T10:35:45.935Z,7.30
2023-03-16T10:38:39.976Z,7.40
2023-03-16T10:41:22.575Z,7.50
2023-03-16T10:43:57.092Z,7.50
2023-03-16T10:46:27.550Z,7.60
2023-03-16T10:49:00.348Z,7.60
2023-03-16T10:51:31.126Z,7.60
2023-03-16T10:54:22.635Z,7.70
2023-03-16T10:56:50.521Z,7.80
2023-03-16T10:59:35.186Z,7.90
2023-03-16T11:02:11.626Z,7.90
2023-03-16T11:04:38.806Z,8.00
2023-03-16T11:07:11.850Z,8.00
2023-03-16T11:09:38.461Z,8.10
2023-03-16T11:12:25.173Z,8.10
2023-03-16T11:14:52.471Z,8.20
2023-03-16T11:17:25.596Z,8.30
2023-03-16T11:20:00.680Z,8.30
2023-03-16T11:22:30.191Z,8.40
2023-03-16T11:25:02.935Z,8.40
2023-03-16T11:27:51.451Z,8.40
2023-03-16T11:30:27.298Z,8.50
2023-03-16T11:32:54.253Z,8.50
2023-03-16T11:35:34.736Z,8.60
2023-03-16T11:38:16.029Z,8.60
2023-03-16T11:41:04.079Z,8.70
2023-03-16T11:43:42.415Z,8.80
2023-03-16T11:46:24.313Z,8.90
2023-03-16T11:49:12.648Z,8.90
2023-03-16T11:52:01.368Z,8.90
2023-03-16T11:54:30.848Z,8.90
2023-03-16T11:57:27.106Z,9.00
2023-03-16T12:00:27.854Z,9.10
2023-03-16T12:03:32.212Z,9.20
2023-03-16T12:06:23.470Z,9.20
2023-03-16T12:09:16.172Z,9.30
2023-03-16T12:11:53.259Z,9.40
2023-03-16T12:14:27.239Z,9.40
2023-03-16T12:17:13.040Z,9.40
2023-03-16T12:20:01.723Z,9.50
2023-03-16T12:22:39.718Z,9.60
2023-03-16T12:25:17.239Z,9.60
2023-03-16T12:27:46.158Z,9.70
2023-03-16T12:30:25.670Z,9.80
2023-03-16T12:33:10.384Z,9.80
2023-03-16T12:35:42.124Z,9.90
2023-03-16T12:38:30.060Z,9.90
2023-03-16T12:41:19.715Z,9.90
2023-03-16T12:44:07.099Z,10.00
2023-03-16T12:46:52.476Z,10.00
2023-03-16T12:49:21.021Z,10.10
2023-03-16T12:51:59.710Z,10.20
2023-03-16T12:54:27.481Z,10.20
2023-03-16T12:57:02.077Z,10.30
2023-03-16T12:59:38.951Z,10.30
2023-03-16T13:02:14.214Z,10.30
2023-03-16T13:04:44.359Z,10.40
2023-03-16T13:07:19.437Z,10.30
2023-03-16T13:10:00.502Z,10.40
2023-03-16T13:12:30.905Z,10.40
2023-03-16T13:14:57.707Z,10.50
2023-03-16T13:17:33.757Z,10.60
2023-03-16T13:20:20.954Z,10.60
2023-03-16T13:23:20.918Z,10.60
2023-03-16T13:26:14.392Z,10.70
2023-03-16T13:28:43.157Z,10.80
2023-03-16T13:31:35.833Z,10.90
2023-03-16T13:34:03.867Z,10.90
2023-03-16T13:36:32.614Z,11.00
2023-03-16T13:39:22.215Z,11.00
2023-03-16T13:41:59.565Z,11.10
2023-03-16T13:44:27.929Z,11.20
2023-03-16T13:46:54.687Z,11.30
2023-03-16T13:49:21.412Z,11.30
2023-03-16T13:51:49.342Z,11.40
2023-03-16T13:54:29.649Z,11.40
2023-03-16T13:57:03.710Z,11.40
2023-03-16T13:59:31.421Z,11.50
2023-03-16T14:02:01.626Z,11.50
2023-03-16T14:04:30.564Z,11.50
2023-03-16T14:07:02.296Z,11.60
2023-03-16T14:09:33.120Z,11.60
2023-03-16T14:12:00.047Z,11.60
2023-03-16T14:14:32.079Z,11.60
2023-03-16T14:17:14.950Z,11.60
2023-03-16T14:19:52.745Z,11.60
2023-03-16T14:22:28.583Z,11.70
2023-03-16T14:24:59.233Z,11.70
2023-03-16T14:27:41.897Z,11.70
2023-03-16T14:30:24.303Z,11.70
2023-03-16T14:33:02.383Z,11.70
2023-03-16T14:35:40.671Z,11.70
2023-03-16T14:38:33.428Z,11.70
2023-03-16T14:41:12.310Z,11.80
2023-03-16T14:43:45.237Z,11.80
2023-03-16T14:46:15.918Z,11.90
2023-03-16T14:48:42.646Z,11.80
2023-03-16T14:51:13.504Z,11.90
2023-03-16T14:53:40.723Z,11.80
2023-03-16T14:56:13.596Z,11.80
2023-03-16T14:58:41.209Z,11.80
2023-03-16T15:01:16.122Z,11.80
2023-03-16T15:03:43.365Z,11.80
2023-03-16T15:06:10.317Z,11.80
2023-03-16T15:08:44.396Z,11.90
2023-03-16T15:11:11.377Z,11.90
2023-03-16T15:13:41.155Z,11.80
2023-03-16T15:16:11.347Z,11.90
2023-03-16T15:18:39.780Z,11.90
2023-03-16T15:21:13.298Z,11.90
2023-03-16T15:23:43.913Z,11.90
2023-03-16T15:26:15.137Z,11.90
2023-03-16T15:28:41.913Z,11.80
2023-03-16T15:31:12.466Z,11.90
2023-03-16T15:33:39.093Z,11.90
2023-03-16T15:36:18.069Z,12.00
2023-03-16T15:38:47.559Z,11.90
2023-03-16T15:41:14.702Z,11.90
2023-03-16T15:43:41.649Z,11.90
2023-03-16T15:46:10.357Z,12.00
2023-03-16T15:48:37.094Z,12.00
2023-03-16T15:51:30.639Z,12.00
2023-03-16T15:54:04.548Z,12.00
2023-03-16T15:56:38.767Z,12.00
2023-03-16T15:59:14.740Z,11.90
2023-03-16T16:01:47.461Z,12.00
2023-03-16T16:04:19.904Z,12.00
2023-03-16T16:06:47.870Z,12.00
2023-03-16T16:09:14.830Z,12.00
2023-03-16T16:11:42.054Z,12.00
2023-03-16T16:14:15.009Z,12.00
2023-03-16T16:16:44.783Z,12.00
2023-03-16T16:19:16.093Z,12.00
2023-03-16T16:21:43.783Z,12.00
2023-03-16T16:24:10.914Z,11.90
2023-03-16T16:26:52.904Z,11.90
2023-03-16T16:29:31.968Z,11.90
2023-03-16T16:31:59.035Z,11.80
2023-03-16T16:34:26.946Z,11.80
2023-03-16T16:36:55.158Z,11.80
2023-03-16T16:39:22.184Z,11.70
2023-03-16T16:41:51.227Z,11.70
2023-03-16T16:44:23.343Z,11.70
2023-03-16T16:46:51.848Z,11.60
2023-03-16T16:49:24.378Z,11.60
2023-03-16T16:51:52.815Z,11.50
2023-03-16T16:54:24.423Z,11.50
2023-03-16T16:56:53.571Z,11.50
2023-03-16T16:59:32.275Z,11.40
2023-03-16T17:02:01.328Z,11.30
2023-03-16T17:04:29.586Z,11.30
2023-03-16T17:07:01.895Z,11.30
2023-03-16T17:09:33.601Z,11.20
2023-03-16T17:12:01.479Z,11.20
2023-03-16T17:14:28.671Z,11.10
2023-03-16T17:16:56.203Z,11.10
2023-03-16T17:19:27.933Z,11.00
2023-03-16T17:21:57.165Z,11.00
2023-03-16T17:24:24.326Z,10.90
2023-03-16T17:26:53.954Z,10.90
2023-03-16T17:29:24.394Z,10.80
2023-03-16T17:31:51.357Z,10.80
2023-03-16T17:34:23.289Z,10.80
2023-03-16T17:36:51.070Z,10.70
2023-03-16T17:39:29.192Z,10.70
2023-03-16T17:42:10.820Z,10.70
2023-03-16T17:44:44.222Z,10.60
2023-03-16T17:47:16.221Z,10.50
2023-03-16T17:49:44.799Z,10.50
2023-03-16T17:52:18.246Z,10.40
2023-03-16T17:54:49.742Z,10.30
2023-03-16T17:57:19.571Z,10.30
2023-03-16T17:59:47.117Z,10.40
2023-03-16T18:02:38.605Z,10.40
2023-03-16T18:05:08.650Z,10.20
2023-03-16T18:07:36.051Z,10.20
2023-03-16T18:10:02.684Z,10.10
2023-03-16T18:12:29.722Z,10.10
2023-03-16T18:14:58.594Z,10.10
2023-03-16T18:17:30.960Z,10.10
2023-03-16T18:19:58.960Z,10.00
2023-03-16T18:22:25.976Z,9.90
2023-03-16T18:24:53.773Z,9.80
2023-03-16T18:27:21.150Z,9.70
2023-03-16T18:29:48.151Z,9.60
2023-03-16T18:32:23.814Z,9.60
2023-03-16T18:34:52.414Z,9.60
2023-03-16T18:37:24.977Z,9.50
2023-03-16T18:39:53.248Z,9.60
2023-03-16T18:42:26.190Z,9.60
2023-03-16T18:44:53.253Z,9.60
2023-03-16T18:47:23.686Z,9.50
2023-03-16T18:49:53.828Z,9.40
2023-03-16T18:52:26.002Z,9.30
2023-03-16T18:54:53.071Z,9.20
2023-03-16T18:57:25.113Z,9.10
2023-03-16T18:59:51.880Z,9.00
2023-03-16T19:02:38.842Z,8.90
2023-03-16T19:05:18.625Z,8.90
2023-03-16T19:07:48.528Z,8.80
2023-03-16T19:10:22.961Z,8.80
2023-03-16T19:12:50.437Z,8.80
2023-03-16T19:15:39.268Z,8.70
2023-03-16T19:18:06.201Z,8.80
2023-03-16T19:20:34.919Z,8.70
2023-03-16T19:23:16.356Z,8.60
2023-03-16T19:25:43.382Z,8.50
2023-03-16T19:28:41.834Z,8.40
2023-03-16T19:31:26.678Z,8.30
2023-03-16T19:33:54.314Z,8.30
2023-03-16T19:36:33.791Z,8.20
2023-03-16T19:39:00.666Z,8.20
2023-03-16T19:41:37.075Z,8.20
2023-03-16T19:44:08.384Z,8.10
2023-03-16T19:46:35.271Z,8.00
2023-03-16T19:49:01.881Z,8.00
2023-03-16T19:51:29.121Z,7.90
2023-03-16T19:53:56.046Z,7.80
2023-03-16T19:56:24.910Z,7.70
2023-03-16T19:58:54.442Z,7.70
2023-03-16T20:01:32.691Z,7.70
2023-03-16T20:03:59.933Z,7.60
2023-03-16T20:06:27.073Z,7.60
2023-03-16T20:08:53.772Z,7.50
2023-03-16T20:11:28.384Z,7.50
2023-03-16T20:13:56.079Z,7.50
2023-03-16T20:16:34.028Z,7.50
2023-03-16T20:19:06.513Z,7.40
2023-03-16T20:21:33.114Z,7.40
2023-03-16T20:23:59.722Z,7.30
2023-03-16T20:26:31.708Z,7.30
2023-03-16T20:29:00.314Z,7.30
2023-03-16T20:31:31.258Z,7.20
2023-03-16T20:33:58.903Z,7.10
2023-03-16T20:36:26.532Z,7.10
2023-03-16T20:38:53.236Z,7.00
2023-03-16T20:41:27.597Z,7.10
2023-03-16T20:43:55.788Z,7.00
2023-03-16T20:46:30.836Z,7.00
2023-03-16T20:49:00.081Z,7.00
2023-03-16T20:51:28.622Z,6.90
2023-03-16T20:53:55.384Z,6.80
2023-03-16T20:56:25.777Z,6.70
2023-03-16T20:58:54.671Z,6.70
2023-03-16T21:01:23.310Z,6.70
2023-03-16T21:03:55.391Z,6.70
2023-03-16T21:06:31.654Z,6.70
2023-03-16T21:09:00.880Z,6.70
2023-03-16T21:11:38.777Z,6.70
2023-03-16T21:14:11.626Z,6.60
2023-03-16T21:16:38.830Z,6.60
2023-03-16T21:19:16.122Z,6.60
2023-03-16T21:21:42.987Z,6.50
2023-03-16T21:24:09.941Z,6.50
2023-03-16T21:26:37.303Z,6.50
2023-03-16T21:29:08.162Z,6.40
2023-03-16T21:31:34.992Z,6.40
2023-03-16T21:34:01.867Z,6.40
2023-03-16T21:36:29.572Z,6.40
2023-03-16T21:38:56.359Z,6.40
2023-03-16T21:41:23.519Z,6.30
2023-03-16T21:43:50.284Z,6.30
2023-03-16T21:46:24.025Z,6.30
2023-03-16T21:48:54.582Z,6.30
2023-03-16T21:51:30.078Z,6.20
2023-03-16T21:53:57.961Z,6.20
2023-03-16T21:56:26.063Z,6.20
2023-03-16T21:58:53.765Z,6.20
2023-03-16T22:01:32.160Z,6.20
2023-03-16T22:04:05.736Z,6.10
2023-03-16T22:06:32.759Z,6.00
2023-03-16T22:09:00.510Z,6.00
2023-03-16T22:11:29.409Z,5.90
2023-03-16T22:13:59.026Z,5.90
2023-03-16T22:16:31.460Z,5.90
2023-03-16T22:18:58.793Z,5.80
2023-03-16T22:21:31.151Z,5.70
2023-03-16T22:23:59.121Z,5.70
2023-03-16T22:26:27.710Z,5.60
2023-03-16T22:28:56.060Z,5.60
2023-03-16T22:31:32.718Z,5.60
2023-03-16T22:34:00.542Z,5.60
2023-03-16T22:36:28.039Z,5.60
2023-03-16T22:38:59.776Z,5.60
2023-03-16T22:41:26.539Z,5.60
2023-03-16T22:43:54.066Z,5.60
2023-03-16T22:46:24.211Z,5.60
2023-03-16T22:48:52.119Z,5.60
2023-03-16T22:51:27.171Z,5.60
2023-03-16T22:53:59.762Z,5.60
2023-03-16T22:56:27.149Z,5.60
2023-03-16T22:58:58.614Z,5.60
2023-03-16T23:01:35.045Z,5.60
2023-03-16T23:04:02.306Z,5.60
2023-03-16T23:06:32.106Z,5.60
2023-03-16T23:08:59.239Z,5.50
2023-03-16T23:11:29.611Z,5.60
2023-03-16T23:13:56.493Z,5.60
2023-03-16T23:16:26.980Z,5.40
2023-03-16T23:18:54.036Z,5.40
2023-03-16T23:21:23.702Z,5.40
2023-03-16T23:24:03.037Z,5.40
2023-03-16T23:26:30.889Z,5.30
2023-03-16T23:28:58.947Z,5.30
2023-03-16T23:31:27.093Z,5.30
2023-03-16T23:33:53.948Z,5.30
2023-03-16T23:36:22.788Z,5.20
2023-03-16T23:38:50.340Z,5.30
2023-03-16T23:41:21.607Z,5.20
2023-03-16T23:43:50.080Z,5.20
2023-03-16T23:46:20.705Z,5.20
2023-03-16T23:48:48.977Z,5.10
2023-03-16T23:51:37.016Z,5.10
2023-03-16T23:54:25.393Z,5.10
2023-03-16T23:56:52.115Z,5.10
2023-03-16T23:59:20.231Z,5.10
